createdAt,value
2018-01-30T00:00:08.132Z,83.80
2018-01-30T00:01:08.144Z,83.80
2018-01-30T00:02:08.163Z,83.80
2018-01-30T00:03:08.181Z,83.51
2018-01-30T00:04:08.194Z,83.41
2018-01-30T00:05:08.212Z,83.41
2018-01-30T00:06:08.231Z,83.03
2018-01-30T00:07:08.244Z,83.32
2018-01-30T00:08:08.265Z,83.51
2018-01-30T00:09:08.278Z,82.84
2018-01-30T00:10:08.302Z,83.22
2018-01-30T00:11:08.309Z,83.37
2018-01-30T00:12:08.328Z,83.51
2018-01-30T00:13:08.349Z,83.03
2018-01-30T00:14:08.382Z,83.32
2018-01-30T00:15:08.387Z,83.13
2018-01-30T00:16:08.400Z,83.37
2018-01-30T00:17:08.412Z,83.32
2018-01-30T00:18:08.433Z,83.56
2018-01-30T00:19:08.449Z,84.04
2018-01-30T00:20:08.463Z,83.75
2018-01-30T00:21:08.484Z,83.75
2018-01-30T00:22:08.501Z,83.61
2018-01-30T00:23:08.516Z,83.37
2018-01-30T00:24:08.546Z,83.56
2018-01-30T00:25:08.555Z,83.70
2018-01-30T00:26:08.567Z,82.84
2018-01-30T00:27:08.583Z,83.18
2018-01-30T00:28:08.599Z,83.65
2018-01-30T00:29:08.617Z,83.70
2018-01-30T00:30:08.654Z,83.22
2018-01-30T00:31:08.652Z,83.18
2018-01-30T00:32:08.672Z,84.04
2018-01-30T00:33:08.683Z,83.65
2018-01-30T00:34:08.707Z,84.33
2018-01-30T00:35:08.719Z,83.65
2018-01-30T00:36:08.731Z,84.52
2018-01-30T00:37:08.754Z,83.61
2018-01-30T00:38:08.770Z,83.41
2018-01-30T00:39:08.785Z,82.93
2018-01-30T00:40:08.804Z,82.46
2018-01-30T00:41:08.821Z,83.03
2018-01-30T00:42:08.840Z,82.75
2018-01-30T00:43:08.849Z,83.56
2018-01-30T00:44:08.872Z,83.65
2018-01-30T00:45:08.897Z,83.75
2018-01-30T00:46:08.903Z,83.22
2018-01-30T00:47:08.924Z,83.37
2018-01-30T00:48:08.940Z,83.61
2018-01-30T00:49:08.963Z,82.84
2018-01-30T00:50:08.975Z,83.41
2018-01-30T00:51:08.996Z,83.13
2018-01-30T00:52:09.011Z,83.32
2018-01-30T00:53:09.026Z,83.41
2018-01-30T00:54:09.044Z,83.13
2018-01-30T00:55:09.061Z,82.65
2018-01-30T00:56:09.073Z,82.46
2018-01-30T00:57:09.096Z,82.61
2018-01-30T00:58:09.110Z,83.75
2018-01-30T00:59:09.133Z,83.85
2018-01-30T01:00:09.141Z,84.23
2018-01-30T01:01:11.088Z,84.52
2018-01-30T01:02:09.179Z,84.33
2018-01-30T01:03:09.206Z,83.56
2018-01-30T01:04:09.211Z,84.04
2018-01-30T01:05:09.233Z,83.80
2018-01-30T01:06:09.248Z,83.89
2018-01-30T01:07:09.268Z,84.23
2018-01-30T01:08:09.284Z,83.70
2018-01-30T01:09:09.300Z,83.22
2018-01-30T01:10:09.322Z,83.61
2018-01-30T01:11:09.333Z,84.04
2018-01-30T01:12:09.348Z,84.42
2018-01-30T01:13:09.366Z,84.04
2018-01-30T01:14:09.385Z,84.42
2018-01-30T01:15:09.408Z,84.61
2018-01-30T01:16:09.418Z,84.61
2018-01-30T01:17:09.435Z,84.61
2018-01-30T01:18:09.452Z,84.23
2018-01-30T01:19:09.472Z,84.80
2018-01-30T01:20:09.488Z,84.65
2018-01-30T01:21:09.504Z,84.33
2018-01-30T01:22:09.520Z,84.61
2018-01-30T01:23:09.540Z,84.61
2018-01-30T01:24:09.551Z,84.70
2018-01-30T01:25:09.570Z,84.80
2018-01-30T01:26:09.598Z,84.89
2018-01-30T01:27:09.604Z,84.80
2018-01-30T01:28:09.620Z,84.70
2018-01-30T01:29:09.638Z,85.56
2018-01-30T01:30:09.659Z,86.04
2018-01-30T01:31:09.671Z,86.04
2018-01-30T01:32:09.686Z,85.66
2018-01-30T01:33:09.708Z,85.75
2018-01-30T01:34:09.723Z,86.13
2018-01-30T01:35:09.749Z,86.04
2018-01-30T01:36:09.756Z,85.08
2018-01-30T01:37:09.774Z,85.08
2018-01-30T01:38:09.797Z,85.18
2018-01-30T01:39:09.808Z,85.47
2018-01-30T01:40:09.844Z,85.85
2018-01-30T01:41:09.849Z,86.04
2018-01-30T01:42:09.863Z,85.41
2018-01-30T01:43:09.882Z,85.51
2018-01-30T01:44:09.892Z,84.99
2018-01-30T01:45:09.911Z,85.28
2018-01-30T01:46:09.941Z,85.75
2018-01-30T01:47:09.946Z,85.85
2018-01-30T01:48:09.964Z,85.41
2018-01-30T01:49:09.984Z,85.51
2018-01-30T01:50:09.995Z,85.56
2018-01-30T01:51:10.013Z,85.56
2018-01-30T01:52:10.029Z,85.56
2018-01-30T01:53:10.045Z,85.47
2018-01-30T01:54:10.068Z,85.80
2018-01-30T01:55:10.078Z,85.22
2018-01-30T01:56:10.104Z,85.03
2018-01-30T01:57:10.116Z,85.85
2018-01-30T01:58:10.135Z,85.85
2018-01-30T01:59:10.143Z,85.70
2018-01-30T02:00:10.166Z,85.56
2018-01-30T02:01:10.179Z,85.75
2018-01-30T02:02:10.205Z,85.85
2018-01-30T02:03:10.234Z,86.04
2018-01-30T02:04:10.230Z,85.75
2018-01-30T02:05:10.247Z,85.85
2018-01-30T02:06:10.266Z,85.56
2018-01-30T02:07:10.288Z,85.32
2018-01-30T02:08:10.301Z,85.22
2018-01-30T02:09:10.316Z,85.28
2018-01-30T02:10:10.336Z,85.18
2018-01-30T02:11:10.349Z,85.47
2018-01-30T02:12:10.372Z,85.28
2018-01-30T02:13:10.380Z,85.18
2018-01-30T02:14:10.397Z,85.51
2018-01-30T02:15:10.415Z,85.66
2018-01-30T02:16:10.429Z,86.04
2018-01-30T02:17:10.462Z,86.13
2018-01-30T02:18:10.471Z,86.04
2018-01-30T02:19:10.483Z,86.04
2018-01-30T02:20:10.500Z,86.61
2018-01-30T02:21:10.515Z,86.70
2018-01-30T02:22:10.533Z,86.61
2018-01-30T02:23:10.553Z,86.22
2018-01-30T02:24:10.583Z,86.61
2018-01-30T02:25:10.585Z,85.75
2018-01-30T02:26:10.601Z,85.94
2018-01-30T02:27:10.626Z,86.04
2018-01-30T02:28:10.638Z,86.32
2018-01-30T02:29:10.652Z,85.66
2018-01-30T02:30:10.669Z,85.47
2018-01-30T02:31:10.687Z,86.32
2018-01-30T02:32:10.702Z,85.75
2018-01-30T02:33:10.725Z,85.85
2018-01-30T02:34:10.744Z,85.66
2018-01-30T02:35:10.750Z,85.66
2018-01-30T02:36:10.770Z,85.66
2018-01-30T02:37:10.782Z,85.85
2018-01-30T02:38:10.800Z,86.04
2018-01-30T02:39:10.831Z,85.66
2018-01-30T02:40:10.838Z,85.75
2018-01-30T02:41:10.858Z,85.75
2018-01-30T02:42:10.872Z,86.22
2018-01-30T02:43:10.889Z,86.42
2018-01-30T02:44:10.912Z,85.56
2018-01-30T02:45:10.921Z,85.75
2018-01-30T02:46:10.938Z,85.75
2018-01-30T02:47:10.955Z,86.42
2018-01-30T02:48:10.979Z,85.66
2018-01-30T02:49:10.991Z,85.66
2018-01-30T02:50:11.004Z,86.42
2018-01-30T02:51:11.024Z,86.04
2018-01-30T02:52:11.038Z,85.75
2018-01-30T02:53:11.058Z,85.66
2018-01-30T02:54:11.090Z,85.47
2018-01-30T02:55:11.104Z,85.75
2018-01-30T02:56:11.107Z,86.22
2018-01-30T02:57:11.125Z,86.22
2018-01-30T02:58:11.142Z,86.32
2018-01-30T02:59:11.159Z,86.61
2018-01-30T03:00:11.174Z,86.42
2018-01-30T03:01:11.193Z,85.66
2018-01-30T03:02:11.209Z,85.94
2018-01-30T03:03:11.223Z,85.85
2018-01-30T03:04:11.247Z,86.22
2018-01-30T03:05:11.260Z,86.13
2018-01-30T03:06:11.282Z,86.04
2018-01-30T03:07:11.292Z,86.32
2018-01-30T03:08:11.315Z,86.04
2018-01-30T03:09:11.328Z,85.66
2018-01-30T03:10:11.346Z,85.85
2018-01-30T03:11:11.363Z,85.56
2018-01-30T03:12:11.376Z,85.60
2018-01-30T03:13:11.396Z,85.56
2018-01-30T03:14:11.411Z,85.85
2018-01-30T03:15:11.444Z,86.04
2018-01-30T03:16:11.451Z,86.61
2018-01-30T03:17:11.461Z,86.32
2018-01-30T03:18:11.487Z,86.22
2018-01-30T03:19:11.497Z,86.04
2018-01-30T03:20:11.517Z,86.42
2018-01-30T03:21:11.536Z,86.13
2018-01-30T03:22:11.547Z,86.61
2018-01-30T03:23:11.566Z,85.66
2018-01-30T03:24:11.589Z,86.42
2018-01-30T03:25:11.600Z,86.22
2018-01-30T03:26:11.612Z,86.42
2018-01-30T03:27:11.635Z,86.99
2018-01-30T03:28:11.651Z,86.99
2018-01-30T03:29:11.665Z,86.42
2018-01-30T03:30:11.688Z,86.80
2018-01-30T03:31:11.712Z,86.80
2018-01-30T03:32:11.715Z,86.04
2018-01-30T03:33:11.779Z,86.61
2018-01-30T03:34:11.755Z,86.61
2018-01-30T03:35:11.768Z,86.61
2018-01-30T03:36:11.790Z,87.27
2018-01-30T03:37:11.799Z,86.90
2018-01-30T03:38:11.822Z,86.80
2018-01-30T03:39:11.837Z,86.99
2018-01-30T03:40:11.854Z,87.18
2018-01-30T03:41:11.871Z,87.18
2018-01-30T03:42:11.889Z,87.75
2018-01-30T03:43:11.907Z,87.65
2018-01-30T03:44:11.927Z,87.27
2018-01-30T03:45:11.941Z,86.99
2018-01-30T03:46:11.960Z,86.61
2018-01-30T03:47:11.975Z,86.99
2018-01-30T03:48:11.990Z,86.90
2018-01-30T03:49:12.010Z,87.08
2018-01-30T03:50:12.025Z,86.80
2018-01-30T03:51:12.038Z,86.32
2018-01-30T03:52:12.106Z,86.22
2018-01-30T03:53:12.077Z,86.46
2018-01-30T03:54:12.094Z,86.51
2018-01-30T03:55:12.111Z,86.04
2018-01-30T03:56:12.129Z,86.42
2018-01-30T03:57:12.139Z,86.22
2018-01-30T03:58:12.158Z,86.22
2018-01-30T03:59:12.178Z,86.80
2018-01-30T04:00:12.198Z,86.13
2018-01-30T04:01:12.264Z,86.22
2018-01-30T04:02:12.228Z,86.70
2018-01-30T04:03:12.247Z,86.61
2018-01-30T04:04:12.265Z,86.42
2018-01-30T04:05:12.281Z,86.04
2018-01-30T04:06:12.299Z,86.80
2018-01-30T04:07:12.312Z,86.32
2018-01-30T04:08:12.338Z,86.22
2018-01-30T04:09:12.349Z,86.70
2018-01-30T04:10:12.425Z,86.99
2018-01-30T04:11:12.384Z,86.22
2018-01-30T04:12:12.397Z,86.27
2018-01-30T04:13:12.419Z,86.61
2018-01-30T04:14:12.434Z,86.51
2018-01-30T04:15:12.458Z,86.32
2018-01-30T04:16:12.466Z,86.42
2018-01-30T04:17:12.487Z,86.13
2018-01-30T04:18:12.503Z,86.70
2018-01-30T04:19:12.525Z,87.27
2018-01-30T04:20:12.608Z,87.56
2018-01-30T04:21:12.559Z,86.90
2018-01-30T04:22:12.572Z,87.46
2018-01-30T04:23:12.617Z,86.90
2018-01-30T04:24:12.612Z,86.99
2018-01-30T04:25:12.621Z,86.22
2018-01-30T04:26:12.660Z,87.27
2018-01-30T04:27:12.662Z,87.46
2018-01-30T04:28:12.676Z,87.27
2018-01-30T04:29:12.694Z,87.94
2018-01-30T04:30:12.711Z,87.75
2018-01-30T04:31:12.746Z,88.60
2018-01-30T04:32:12.751Z,88.70
2018-01-30T04:33:12.761Z,86.70
2018-01-30T04:34:12.822Z,86.61
2018-01-30T04:35:12.795Z,87.75
2018-01-30T04:36:12.809Z,87.94
2018-01-30T04:37:12.841Z,87.85
2018-01-30T04:38:12.862Z,88.42
2018-01-30T04:39:12.876Z,88.79
2018-01-30T04:40:12.884Z,88.99
2018-01-30T04:41:12.900Z,89.08
2018-01-30T04:42:12.930Z,87.65
2018-01-30T04:43:12.938Z,87.03
2018-01-30T04:44:12.956Z,86.80
2018-01-30T04:45:12.975Z,87.08
2018-01-30T04:46:12.989Z,87.75
2018-01-30T04:47:13.001Z,88.89
2018-01-30T04:48:13.027Z,88.13
2018-01-30T04:49:13.039Z,88.99
2018-01-30T04:50:13.056Z,88.70
2018-01-30T04:51:13.082Z,88.89
2018-01-30T04:52:13.089Z,89.27
2018-01-30T04:53:13.115Z,89.27
2018-01-30T04:54:13.129Z,89.75
2018-01-30T04:55:13.143Z,90.32
2018-01-30T04:56:13.161Z,90.51
2018-01-30T04:57:13.216Z,90.51
2018-01-30T04:58:13.279Z,90.22
2018-01-30T04:59:13.210Z,90.22
2018-01-30T05:00:13.228Z,90.61
2018-01-30T05:01:13.252Z,91.08
2018-01-30T05:02:13.272Z,90.51
2018-01-30T05:03:13.292Z,90.51
2018-01-30T05:04:13.302Z,90.51
2018-01-30T05:05:13.324Z,90.42
2018-01-30T05:06:13.347Z,90.13
2018-01-30T05:07:13.389Z,90.42
2018-01-30T05:08:13.380Z,91.08
2018-01-30T05:09:13.405Z,91.17
2018-01-30T05:10:13.411Z,91.65
2018-01-30T05:11:13.437Z,91.46
2018-01-30T05:12:13.444Z,91.65
2018-01-30T05:13:13.470Z,91.84
2018-01-30T05:14:13.509Z,91.17
2018-01-30T05:15:13.498Z,91.84
2018-01-30T05:16:13.515Z,91.37
2018-01-30T05:17:13.534Z,90.42
2018-01-30T05:18:13.548Z,90.89
2018-01-30T05:19:13.572Z,91.08
2018-01-30T05:20:13.584Z,91.17
2018-01-30T05:21:13.607Z,90.99
2018-01-30T05:22:13.623Z,90.61
2018-01-30T05:23:13.639Z,90.80
2018-01-30T05:24:13.660Z,90.13
2018-01-30T05:25:13.676Z,89.94
2018-01-30T05:26:13.694Z,90.51
2018-01-30T05:27:13.711Z,89.56
2018-01-30T05:28:13.729Z,89.84
2018-01-30T05:29:13.746Z,90.32
2018-01-30T05:30:13.768Z,90.99
2018-01-30T05:31:13.781Z,90.32
2018-01-30T05:32:13.799Z,90.51
2018-01-30T05:33:13.817Z,91.46
2018-01-30T05:34:13.863Z,91.46
2018-01-30T05:35:13.852Z,91.46
2018-01-30T05:36:13.871Z,91.37
2018-01-30T05:37:13.888Z,91.08
2018-01-30T05:38:13.910Z,91.08
2018-01-30T05:39:13.923Z,91.65
2018-01-30T05:40:13.945Z,91.46
2018-01-30T05:41:13.959Z,91.65
2018-01-30T05:42:13.980Z,91.56
2018-01-30T05:43:13.998Z,91.56
2018-01-30T05:44:14.016Z,91.17
2018-01-30T05:45:14.041Z,91.37
2018-01-30T05:46:14.052Z,91.65
2018-01-30T05:47:14.070Z,91.84
2018-01-30T05:48:14.093Z,91.46
2018-01-30T05:49:14.146Z,90.89
2018-01-30T05:50:14.172Z,91.08
2018-01-30T05:51:14.150Z,91.17
2018-01-30T05:52:14.158Z,91.75
2018-01-30T05:53:14.185Z,91.46
2018-01-30T05:54:14.201Z,90.89
2018-01-30T05:55:14.214Z,91.17
2018-01-30T05:56:14.227Z,90.89
2018-01-30T05:57:14.284Z,90.99
2018-01-30T05:58:14.262Z,91.17
2018-01-30T05:59:14.285Z,91.08
2018-01-30T06:00:14.306Z,90.89
2018-01-30T06:01:14.325Z,89.65
2018-01-30T06:02:14.341Z,88.93
2018-01-30T06:03:14.354Z,89.94
2018-01-30T06:04:14.387Z,89.98
2018-01-30T06:05:14.410Z,88.70
2018-01-30T06:06:14.408Z,88.27
2018-01-30T06:07:14.425Z,88.42
2018-01-30T06:08:14.443Z,88.27
2018-01-30T06:09:14.466Z,88.89
2018-01-30T06:10:14.482Z,89.18
2018-01-30T06:11:14.519Z,89.80
2018-01-30T06:12:14.546Z,89.75
2018-01-30T06:13:14.539Z,90.37
2018-01-30T06:14:14.552Z,89.18
2018-01-30T06:15:14.574Z,88.04
2018-01-30T06:16:14.588Z,87.56
2018-01-30T06:17:14.609Z,87.03
2018-01-30T06:18:14.630Z,86.65
2018-01-30T06:19:14.646Z,86.90
2018-01-30T06:20:14.660Z,87.37
2018-01-30T06:21:14.686Z,88.13
2018-01-30T06:22:14.700Z,88.13
2018-01-30T06:23:14.719Z,87.37
2018-01-30T06:24:14.732Z,88.23
2018-01-30T06:25:14.753Z,88.42
2018-01-30T06:26:14.769Z,87.94
2018-01-30T06:27:14.786Z,86.90
2018-01-30T06:28:14.809Z,86.55
2018-01-30T06:29:14.824Z,86.04
2018-01-30T06:30:14.843Z,86.08
2018-01-30T06:31:14.867Z,86.08
2018-01-30T06:32:14.875Z,86.22
2018-01-30T06:33:14.894Z,86.42
2018-01-30T06:34:14.917Z,86.61
2018-01-30T06:35:14.927Z,85.56
2018-01-30T06:36:14.949Z,85.56
2018-01-30T06:37:14.963Z,85.37
2018-01-30T06:38:14.982Z,85.28
2018-01-30T06:39:15.009Z,84.80
2018-01-30T06:40:15.020Z,84.04
2018-01-30T06:41:15.035Z,83.75
2018-01-30T06:42:15.059Z,85.37
2018-01-30T06:43:15.074Z,85.33
2018-01-30T06:44:15.090Z,86.18
2018-01-30T06:45:15.114Z,84.70
2018-01-30T06:46:15.128Z,84.52
2018-01-30T06:47:15.148Z,83.85
2018-01-30T06:48:15.162Z,84.04
2018-01-30T06:49:15.181Z,83.37
2018-01-30T06:50:15.196Z,83.52
2018-01-30T06:51:15.216Z,84.04
2018-01-30T06:52:15.233Z,82.95
2018-01-30T06:53:15.250Z,82.57
2018-01-30T06:54:15.271Z,82.48
2018-01-30T06:55:15.287Z,82.00
2018-01-30T06:56:15.305Z,82.19
2018-01-30T06:57:15.321Z,81.62
2018-01-30T06:58:15.344Z,82.00
2018-01-30T06:59:15.355Z,81.24
2018-01-30T07:00:15.380Z,81.52
2018-01-30T07:01:15.389Z,81.24
2018-01-30T07:02:15.411Z,80.95
2018-01-30T07:03:15.428Z,81.14
2018-01-30T07:04:15.442Z,80.47
2018-01-30T07:05:15.466Z,80.19
2018-01-30T07:06:15.485Z,80.38
2018-01-30T07:07:15.497Z,80.76
2018-01-30T07:08:15.518Z,80.57
2018-01-30T07:09:15.536Z,80.13
2018-01-30T07:10:15.561Z,79.28
2018-01-30T07:11:15.582Z,78.67
2018-01-30T07:12:15.587Z,80.10
2018-01-30T07:13:15.605Z,79.57
2018-01-30T07:14:15.624Z,79.43
2018-01-30T07:15:15.638Z,79.43
2018-01-30T07:16:15.664Z,79.62
2018-01-30T07:17:15.679Z,79.28
2018-01-30T07:18:15.697Z,78.80
2018-01-30T07:19:15.709Z,79.05
2018-01-30T07:20:15.751Z,79.72
2018-01-30T07:21:15.750Z,80.00
2018-01-30T07:22:15.767Z,79.91
2018-01-30T07:23:15.783Z,79.85
2018-01-30T07:24:15.804Z,80.33
2018-01-30T07:25:15.833Z,79.66
2018-01-30T07:26:15.837Z,79.05
2018-01-30T07:27:15.851Z,79.81
2018-01-30T07:28:15.868Z,79.91
2018-01-30T07:29:15.889Z,79.81
2018-01-30T07:30:15.906Z,79.62
2018-01-30T07:31:15.924Z,79.52
2018-01-30T07:32:15.938Z,79.24
2018-01-30T07:33:15.959Z,79.43
2018-01-30T07:34:15.980Z,79.14
2018-01-30T07:35:15.995Z,78.67
2018-01-30T07:36:16.010Z,78.77
2018-01-30T07:37:16.041Z,79.81
2018-01-30T07:38:16.051Z,80.00
2018-01-30T07:39:16.063Z,79.33
2018-01-30T07:40:16.087Z,79.24
2018-01-30T07:41:16.099Z,78.96
2018-01-30T07:42:16.118Z,78.90
2018-01-30T07:43:16.146Z,78.71
2018-01-30T07:44:16.204Z,78.52
2018-01-30T07:45:16.178Z,78.71
2018-01-30T07:46:16.188Z,78.10
2018-01-30T07:47:16.203Z,78.86
2018-01-30T07:48:16.219Z,79.05
2018-01-30T07:49:16.241Z,79.05
2018-01-30T07:50:16.270Z,79.05
2018-01-30T07:51:16.277Z,78.57
2018-01-30T07:52:16.290Z,79.33
2018-01-30T07:53:16.314Z,78.77
2018-01-30T07:54:16.330Z,79.05
2018-01-30T07:55:16.354Z,78.52
2018-01-30T07:56:16.363Z,78.61
2018-01-30T07:57:16.386Z,78.33
2018-01-30T07:58:16.401Z,77.95
2018-01-30T07:59:16.420Z,77.66
2018-01-30T08:00:16.433Z,77.37
2018-01-30T08:01:16.447Z,77.91
2018-01-30T08:02:16.481Z,78.29
2018-01-30T08:03:16.490Z,78.86
2018-01-30T08:04:16.512Z,79.01
2018-01-30T08:05:16.525Z,78.38
2018-01-30T08:06:16.544Z,78.57
2018-01-30T08:07:16.560Z,78.38
2018-01-30T08:08:16.578Z,78.86
2018-01-30T08:09:16.597Z,78.57
2018-01-30T08:10:16.614Z,78.96
2018-01-30T08:11:16.638Z,78.10
2018-01-30T08:12:16.654Z,77.91
2018-01-30T08:13:16.670Z,78.10
2018-01-30T08:14:16.688Z,78.38
2018-01-30T08:15:16.703Z,78.77
2018-01-30T08:16:16.716Z,78.67
2018-01-30T08:17:16.745Z,77.91
2018-01-30T08:18:16.760Z,77.81
2018-01-30T08:19:16.767Z,76.81
2018-01-30T08:20:16.789Z,74.80
2018-01-30T08:21:16.809Z,74.33
2018-01-30T08:22:16.835Z,74.71
2018-01-30T08:23:16.840Z,74.90
2018-01-30T08:24:16.866Z,75.38
2018-01-30T08:25:16.874Z,76.04
2018-01-30T08:26:16.895Z,76.52
2018-01-30T08:27:16.910Z,75.38
2018-01-30T08:28:16.939Z,75.47
2018-01-30T08:29:16.960Z,76.04
2018-01-30T08:30:16.968Z,76.04
2018-01-30T08:31:16.989Z,76.23
2018-01-30T08:32:17.002Z,76.61
2018-01-30T08:33:17.023Z,76.33
2018-01-30T08:34:17.041Z,76.04
2018-01-30T08:35:17.054Z,76.14
2018-01-30T08:36:17.073Z,75.47
2018-01-30T08:37:17.092Z,75.19
2018-01-30T08:38:17.110Z,75.19
2018-01-30T08:39:17.149Z,75.28
2018-01-30T08:40:17.147Z,76.42
2018-01-30T08:41:17.168Z,76.39
2018-01-30T08:42:17.185Z,76.96
2018-01-30T08:43:17.204Z,77.56
2018-01-30T08:44:17.219Z,76.33
2018-01-30T08:45:17.244Z,75.19
2018-01-30T08:46:17.252Z,75.28
2018-01-30T08:47:17.276Z,74.90
2018-01-30T08:48:17.297Z,74.90
2018-01-30T08:49:17.307Z,75.28
2018-01-30T08:50:17.333Z,76.04
2018-01-30T08:51:17.398Z,76.90
2018-01-30T08:52:17.361Z,76.42
2018-01-30T08:53:17.380Z,76.14
2018-01-30T08:54:17.407Z,75.95
2018-01-30T08:55:17.412Z,76.23
2018-01-30T08:56:17.434Z,76.23
2018-01-30T08:57:17.461Z,76.42
2018-01-30T08:58:17.472Z,76.04
2018-01-30T08:59:17.489Z,75.28
2018-01-30T09:00:17.507Z,75.19
2018-01-30T09:01:17.525Z,74.84
2018-01-30T09:02:17.544Z,74.71
2018-01-30T09:03:17.561Z,74.80
2018-01-30T09:04:17.582Z,74.62
2018-01-30T09:05:19.202Z,74.24
2018-01-30T09:06:17.614Z,74.43
2018-01-30T09:07:17.631Z,74.43
2018-01-30T09:08:17.651Z,74.90
2018-01-30T09:09:17.707Z,74.99
2018-01-30T09:10:17.689Z,75.19
2018-01-30T09:11:17.711Z,76.14
2018-01-30T09:12:17.725Z,76.23
2018-01-30T09:13:17.738Z,75.57
2018-01-30T09:14:17.764Z,74.80
2018-01-30T09:15:17.802Z,74.65
2018-01-30T09:16:17.810Z,74.43
2018-01-30T09:17:17.817Z,74.71
2018-01-30T09:18:17.832Z,75.09
2018-01-30T09:19:17.854Z,74.80
2018-01-30T09:20:17.866Z,75.38
2018-01-30T09:21:17.887Z,75.38
2018-01-30T09:22:17.910Z,75.38
2018-01-30T09:23:17.923Z,75.19
2018-01-30T09:24:17.949Z,74.99
2018-01-30T09:25:17.969Z,74.65
2018-01-30T09:26:17.981Z,73.99
2018-01-30T09:27:17.996Z,74.08
2018-01-30T09:28:18.011Z,73.32
2018-01-30T09:29:18.035Z,73.32
2018-01-30T09:30:18.052Z,73.61
2018-01-30T09:31:18.074Z,73.51
2018-01-30T09:32:18.090Z,74.08
2018-01-30T09:33:18.178Z,73.99
2018-01-30T09:34:18.129Z,74.08
2018-01-30T09:35:18.144Z,74.37
2018-01-30T09:36:18.175Z,75.13
2018-01-30T09:37:18.184Z,74.75
2018-01-30T09:38:18.199Z,74.65
2018-01-30T09:39:18.212Z,74.94
2018-01-30T09:40:18.242Z,74.46
2018-01-30T09:41:18.251Z,74.56
2018-01-30T09:42:18.273Z,74.08
2018-01-30T09:43:18.288Z,74.46
2018-01-30T09:44:18.308Z,75.51
2018-01-30T09:45:18.329Z,74.75
2018-01-30T09:46:18.352Z,74.75
2018-01-30T09:47:18.361Z,74.31
2018-01-30T09:48:18.377Z,74.75
2018-01-30T09:49:18.399Z,74.75
2018-01-30T09:50:18.416Z,75.32
2018-01-30T09:51:18.439Z,75.32
2018-01-30T09:52:18.455Z,75.42
2018-01-30T09:53:18.478Z,76.37
2018-01-30T09:54:18.501Z,76.75
2018-01-30T09:55:18.509Z,76.37
2018-01-30T09:56:18.528Z,76.56
2018-01-30T09:57:18.553Z,76.08
2018-01-30T09:58:18.567Z,76.46
2018-01-30T09:59:18.586Z,75.42
2018-01-30T10:00:18.669Z,75.51
2018-01-30T10:01:18.623Z,75.51
2018-01-30T10:02:18.635Z,75.51
2018-01-30T10:03:18.659Z,75.99
2018-01-30T10:04:18.704Z,76.08
2018-01-30T10:05:18.696Z,75.32
2018-01-30T10:06:18.711Z,75.70
2018-01-30T10:07:18.732Z,74.88
2018-01-30T10:08:18.760Z,74.50
2018-01-30T10:09:18.770Z,74.50
2018-01-30T10:10:18.788Z,74.50
2018-01-30T10:11:18.801Z,74.60
2018-01-30T10:12:18.830Z,74.02
2018-01-30T10:13:18.842Z,73.68
2018-01-30T10:14:18.861Z,73.36
2018-01-30T10:15:18.882Z,73.21
2018-01-30T10:16:18.903Z,73.83
2018-01-30T10:17:18.917Z,73.65
2018-01-30T10:18:18.950Z,74.12
2018-01-30T10:19:18.955Z,73.83
2018-01-30T10:20:18.976Z,73.65
2018-01-30T10:21:18.994Z,73.55
2018-01-30T10:22:19.016Z,73.55
2018-01-30T10:23:19.030Z,73.93
2018-01-30T10:24:19.054Z,73.74
2018-01-30T10:25:19.070Z,74.02
2018-01-30T10:26:19.090Z,73.55
2018-01-30T10:27:19.108Z,73.83
2018-01-30T10:28:19.126Z,74.02
2018-01-30T10:29:19.148Z,73.74
2018-01-30T10:30:19.165Z,74.31
2018-01-30T10:31:19.190Z,74.40
2018-01-30T10:32:19.204Z,74.79
2018-01-30T10:33:19.220Z,74.60
2018-01-30T10:34:19.242Z,74.94
2018-01-30T10:35:19.261Z,75.16
2018-01-30T10:36:19.286Z,75.26
2018-01-30T10:37:19.304Z,75.51
2018-01-30T10:38:19.331Z,74.98
2018-01-30T10:39:19.339Z,74.79
2018-01-30T10:40:19.361Z,75.42
2018-01-30T10:41:19.390Z,75.45
2018-01-30T10:42:19.415Z,74.60
2018-01-30T10:43:19.414Z,74.50
2018-01-30T10:44:19.441Z,74.79
2018-01-30T10:45:19.452Z,75.36
2018-01-30T10:46:19.471Z,74.88
2018-01-30T10:47:19.492Z,74.50
2018-01-30T10:48:19.510Z,75.07
2018-01-30T10:49:19.531Z,75.51
2018-01-30T10:50:19.551Z,75.45
2018-01-30T10:51:19.571Z,76.27
2018-01-30T10:52:19.586Z,75.36
2018-01-30T10:53:19.608Z,75.74
2018-01-30T10:54:19.621Z,75.55
2018-01-30T10:55:19.647Z,75.11
2018-01-30T10:56:19.665Z,73.58
2018-01-30T10:57:19.680Z,73.21
2018-01-30T10:58:19.698Z,73.01
2018-01-30T10:59:19.722Z,73.21
2018-01-30T11:00:19.748Z,72.57
2018-01-30T11:01:19.761Z,72.57
2018-01-30T11:02:19.779Z,72.09
2018-01-30T11:03:19.802Z,72.53
2018-01-30T11:04:19.818Z,73.68
2018-01-30T11:05:19.834Z,73.96
2018-01-30T11:06:19.863Z,73.81
2018-01-30T11:07:19.927Z,73.21
2018-01-30T11:08:19.901Z,73.91
2018-01-30T11:09:19.923Z,74.16
2018-01-30T11:10:19.939Z,73.77
2018-01-30T11:11:19.959Z,73.87
2018-01-30T11:12:19.993Z,74.35
2018-01-30T11:13:19.992Z,74.40
2018-01-30T11:14:20.021Z,74.35
2018-01-30T11:15:20.034Z,74.06
2018-01-30T11:16:20.051Z,74.35
2018-01-30T11:17:20.075Z,74.06
2018-01-30T11:18:20.095Z,73.96
2018-01-30T11:19:20.112Z,74.44
2018-01-30T11:20:20.140Z,74.73
2018-01-30T11:21:20.154Z,74.63
2018-01-30T11:22:20.177Z,74.79
2018-01-30T11:23:20.186Z,74.98
2018-01-30T11:24:20.209Z,74.98
2018-01-30T11:25:20.227Z,75.07
2018-01-30T11:26:20.254Z,74.98
2018-01-30T11:27:20.269Z,75.26
2018-01-30T11:28:20.284Z,74.63
2018-01-30T11:29:20.309Z,74.73
2018-01-30T11:30:20.331Z,73.87
2018-01-30T11:31:20.349Z,73.01
2018-01-30T11:32:20.364Z,73.30
2018-01-30T11:33:20.387Z,73.01
2018-01-30T11:34:20.403Z,73.11
2018-01-30T11:35:20.433Z,73.91
2018-01-30T11:36:20.496Z,73.87
2018-01-30T11:37:20.481Z,74.25
2018-01-30T11:38:20.482Z,74.54
2018-01-30T11:39:20.497Z,74.54
2018-01-30T11:40:20.517Z,74.44
2018-01-30T11:41:20.550Z,73.77
2018-01-30T11:42:20.564Z,74.16
2018-01-30T11:43:20.575Z,74.35
2018-01-30T11:44:20.602Z,73.96
2018-01-30T11:45:20.627Z,74.82
2018-01-30T11:46:20.642Z,75.16
2018-01-30T11:47:20.662Z,74.63
2018-01-30T11:48:20.680Z,74.44
2018-01-30T11:49:20.708Z,74.50
2018-01-30T11:50:20.738Z,74.35
2018-01-30T11:51:20.745Z,73.77
2018-01-30T11:53:20.855Z,73.30
2018-01-30T11:54:20.799Z,73.24
2018-01-30T11:55:20.830Z,73.58
2018-01-30T11:56:20.835Z,74.01
2018-01-30T11:57:20.850Z,73.72
2018-01-30T11:58:20.878Z,74.19
2018-01-30T11:59:20.899Z,73.91
2018-01-30T12:00:20.917Z,73.43
2018-01-30T12:01:20.937Z,72.67
2018-01-30T12:02:20.954Z,72.76
2018-01-30T12:03:20.975Z,72.96
2018-01-30T12:04:20.991Z,72.96
2018-01-30T12:05:21.007Z,73.33
2018-01-30T12:06:21.032Z,72.86
2018-01-30T12:07:21.055Z,72.96
2018-01-30T12:08:21.072Z,73.87
2018-01-30T12:09:21.090Z,74.69
2018-01-30T12:10:21.110Z,75.26
2018-01-30T12:11:21.131Z,75.49
2018-01-30T12:12:21.147Z,75.64
2018-01-30T12:13:21.163Z,75.59
2018-01-30T12:14:21.186Z,75.20
2018-01-30T12:15:21.206Z,74.44
2018-01-30T12:16:21.228Z,74.92
2018-01-30T12:17:21.241Z,75.59
2018-01-30T12:18:21.267Z,75.49
2018-01-30T12:19:21.284Z,75.30
2018-01-30T12:20:21.304Z,74.44
2018-01-30T12:21:21.342Z,74.44
2018-01-30T12:22:21.341Z,74.82
2018-01-30T12:23:21.363Z,74.73
2018-01-30T12:24:21.384Z,75.01
2018-01-30T12:25:21.399Z,74.54
2018-01-30T12:26:21.423Z,74.54
2018-01-30T12:27:21.447Z,74.35
2018-01-30T12:28:21.460Z,73.58
2018-01-30T12:29:21.482Z,74.16
2018-01-30T12:30:21.500Z,74.16
2018-01-30T12:31:21.534Z,74.54
2018-01-30T12:32:21.549Z,74.54
2018-01-30T12:33:21.555Z,74.44
2018-01-30T12:34:21.587Z,75.20
2018-01-30T12:35:21.602Z,75.11
2018-01-30T12:36:21.622Z,75.30
2018-01-30T12:37:21.637Z,74.92
2018-01-30T12:38:21.659Z,75.30
2018-01-30T12:39:21.680Z,74.82
2018-01-30T12:40:21.701Z,74.82
2018-01-30T12:41:21.715Z,74.82
2018-01-30T12:42:21.728Z,75.59
2018-01-30T12:43:21.758Z,75.40
2018-01-30T12:44:21.793Z,74.92
2018-01-30T12:45:21.794Z,74.48
2018-01-30T12:46:21.814Z,74.29
2018-01-30T12:47:21.857Z,74.29
2018-01-30T12:48:21.852Z,73.81
2018-01-30T12:49:21.876Z,73.62
2018-01-30T12:50:21.883Z,73.81
2018-01-30T12:51:21.909Z,74.38
2018-01-30T12:52:21.937Z,73.91
2018-01-30T12:53:21.951Z,73.62